createdAt,value
2023-04-28T00:02:04.734Z,7.13
2023-04-28T00:04:31.843Z,6.97
2023-04-28T00:06:59.214Z,6.40
2023-04-28T00:09:26.102Z,7.10
2023-04-28T00:11:53.010Z,6.80
2023-04-28T00:14:19.932Z,7.70
2023-04-28T00:16:46.958Z,5.97
2023-04-28T00:19:13.884Z,7.03
2023-04-28T00:21:40.738Z,6.93
2023-04-28T00:24:07.715Z,7.27
2023-04-28T00:26:34.952Z,6.83
2023-04-28T00:29:02.048Z,7.37
2023-04-28T00:31:28.920Z,7.43
2023-04-28T00:33:55.879Z,7.00
2023-04-28T00:36:23.383Z,7.60
2023-04-28T00:38:50.213Z,6.80
2023-04-28T00:41:17.054Z,7.70
2023-04-28T00:43:45.684Z,7.30
2023-04-28T00:46:29.466Z,7.20
2023-04-28T00:48:57.565Z,7.00
2023-04-28T00:51:25.136Z,8.30
2023-04-28T00:53:52.134Z,6.73
2023-04-28T00:56:19.660Z,7.13
2023-04-28T00:58:46.491Z,8.07
2023-04-28T01:01:13.375Z,7.90
2023-04-28T01:03:41.611Z,8.67
2023-04-28T01:06:09.850Z,7.60
2023-04-28T01:08:38.861Z,7.90
2023-04-28T01:11:07.031Z,8.40
2023-04-28T01:13:33.967Z,6.77
2023-04-28T01:16:01.445Z,7.73
2023-04-28T01:18:28.801Z,7.10
2023-04-28T01:20:56.195Z,8.07
2023-04-28T01:23:23.163Z,8.13
2023-04-28T01:25:50.033Z,8.13
2023-04-28T01:28:16.916Z,8.10
2023-04-28T01:30:43.815Z,7.47
2023-04-28T01:33:10.884Z,8.10
2023-04-28T01:35:37.873Z,7.70
2023-04-28T01:38:04.762Z,8.30
2023-04-28T01:40:32.125Z,8.57
2023-04-28T01:42:58.939Z,8.10
2023-04-28T01:45:25.826Z,8.83
2023-04-28T01:47:53.266Z,8.40
2023-04-28T01:50:20.174Z,8.00
2023-04-28T01:52:47.305Z,7.97
2023-04-28T01:55:14.428Z,8.80
2023-04-28T01:57:44.333Z,8.87
2023-04-28T02:00:11.682Z,8.60
2023-04-28T02:02:38.630Z,8.57
2023-04-28T02:05:05.903Z,9.10
2023-04-28T02:07:32.755Z,8.90
2023-04-28T02:09:59.841Z,9.20
2023-04-28T02:12:26.677Z,8.80
2023-04-28T02:14:53.744Z,9.60
2023-04-28T02:17:20.781Z,9.90
2023-04-28T02:19:47.696Z,9.70
2023-04-28T02:22:14.602Z,9.80
2023-04-28T02:24:41.570Z,9.77
2023-04-28T02:27:08.462Z,9.57
2023-04-28T02:29:35.397Z,10.07
2023-04-28T02:32:02.906Z,9.17
2023-04-28T02:34:29.995Z,9.30
2023-04-28T02:36:57.126Z,9.40
2023-04-28T02:39:27.120Z,9.23
2023-04-28T02:41:54.259Z,10.30
2023-04-28T02:44:21.239Z,11.10
2023-04-28T02:46:48.414Z,9.33
2023-04-28T02:49:15.786Z,9.20
2023-04-28T02:51:42.646Z,9.57
2023-04-28T02:54:10.204Z,10.07
2023-04-28T02:56:37.261Z,9.80
2023-04-28T02:59:04.375Z,10.50
2023-04-28T03:01:31.334Z,11.00
2023-04-28T03:03:58.655Z,10.50
2023-04-28T03:06:26.601Z,9.93
2023-04-28T03:08:53.470Z,11.40
2023-04-28T03:11:20.794Z,10.20
2023-04-28T03:13:48.219Z,11.10
2023-04-28T03:16:15.144Z,10.27
2023-04-28T03:18:42.063Z,11.70
2023-04-28T03:21:09.264Z,10.90
2023-04-28T03:23:36.621Z,11.13
2023-04-28T03:26:03.723Z,11.07
2023-04-28T03:28:30.893Z,13.00
2023-04-28T03:30:58.300Z,10.67
2023-04-28T03:33:25.587Z,11.47
2023-04-28T03:35:53.641Z,11.90
2023-04-28T03:38:21.068Z,11.70
2023-04-28T03:40:47.979Z,10.63
2023-04-28T03:43:15.036Z,11.20
2023-04-28T03:45:41.993Z,10.63
2023-04-28T03:48:09.000Z,12.47
2023-04-28T03:50:35.964Z,11.13
2023-04-28T03:53:02.846Z,11.20
2023-04-28T03:55:29.724Z,11.40
2023-04-28T03:57:56.631Z,12.03
2023-04-28T04:00:23.548Z,11.23
2023-04-28T04:02:50.615Z,12.93
2023-04-28T04:05:17.995Z,12.30
2023-04-28T04:07:45.034Z,11.50
2023-04-28T04:10:12.184Z,11.37
2023-04-28T04:12:39.030Z,11.50
2023-04-28T04:15:07.145Z,12.20
2023-04-28T04:17:34.194Z,11.70
2023-04-28T04:20:01.095Z,12.40
2023-04-28T04:22:28.153Z,11.60
2023-04-28T04:24:54.993Z,12.40
2023-04-28T04:27:21.995Z,12.50
2023-04-28T04:29:48.925Z,13.10
2023-04-28T04:32:16.217Z,11.87
2023-04-28T04:34:43.199Z,12.77
2023-04-28T04:37:10.678Z,11.83
2023-04-28T04:39:37.645Z,12.50
2023-04-28T04:42:16.815Z,13.03
2023-04-28T04:44:50.620Z,13.53
2023-04-28T04:47:17.563Z,13.40
2023-04-28T04:49:44.938Z,12.50
2023-04-28T04:52:11.966Z,13.23
2023-04-28T04:54:38.841Z,12.43
2023-04-28T04:57:06.788Z,12.90
2023-04-28T04:59:33.854Z,12.47
2023-04-28T05:02:01.013Z,12.57
2023-04-28T05:04:28.308Z,13.10
2023-04-28T05:06:55.792Z,14.73
2023-04-28T05:09:23.365Z,12.33
2023-04-28T05:11:50.398Z,13.60
2023-04-28T05:14:17.799Z,13.90
2023-04-28T05:16:45.134Z,13.07
2023-04-28T05:19:12.286Z,13.63
2023-04-28T05:21:39.117Z,14.27
2023-04-28T05:24:06.913Z,13.77
2023-04-28T05:26:33.858Z,14.10
2023-04-28T05:29:01.280Z,13.60
2023-04-28T05:31:28.160Z,13.90
2023-04-28T05:33:55.930Z,14.50
2023-04-28T05:36:22.894Z,14.10
2023-04-28T05:38:49.780Z,13.50
2023-04-28T05:41:16.626Z,13.57
2023-04-28T05:43:43.550Z,14.70
2023-04-28T05:46:28.207Z,14.40
2023-04-28T05:48:56.616Z,15.33
2023-04-28T05:51:23.513Z,14.73
2023-04-28T05:53:50.827Z,16.40
2023-04-28T05:56:17.772Z,12.70
2023-04-28T05:58:45.281Z,13.90
2023-04-28T06:01:12.494Z,14.50
2023-04-28T06:03:43.595Z,14.33
2023-04-28T06:06:11.480Z,15.53
2023-04-28T06:08:39.132Z,15.90
2023-04-28T06:11:06.755Z,14.37
2023-04-28T06:13:33.916Z,14.07
2023-04-28T06:16:01.228Z,16.50
2023-04-28T06:18:33.127Z,15.40
2023-04-28T06:21:00.203Z,15.30
2023-04-28T06:23:27.303Z,15.53
2023-04-28T06:25:54.271Z,15.80
2023-04-28T06:28:21.109Z,15.03
2023-04-28T06:30:48.059Z,16.63
2023-04-28T06:33:14.913Z,16.07
2023-04-28T06:35:41.873Z,16.03
2023-04-28T06:38:08.772Z,14.80
2023-04-28T06:40:36.077Z,15.13
2023-04-28T06:43:03.101Z,15.93
2023-04-28T06:45:29.998Z,16.10
2023-04-28T06:47:56.964Z,16.10
2023-04-28T06:50:24.468Z,16.07
2023-04-28T06:52:51.444Z,15.70
2023-04-28T06:55:19.184Z,17.60
2023-04-28T06:57:46.164Z,16.93
2023-04-28T07:00:14.036Z,16.70
2023-04-28T07:02:41.264Z,16.73
2023-04-28T07:05:08.911Z,16.70
2023-04-28T07:07:38.970Z,14.97
2023-04-28T07:10:06.688Z,14.97
2023-04-28T07:12:33.993Z,17.37
2023-04-28T07:15:00.896Z,15.63
2023-04-28T07:17:27.865Z,15.00
2023-04-28T07:19:54.737Z,14.43
2023-04-28T07:22:21.748Z,14.40
2023-04-28T07:24:49.004Z,13.73
2023-04-28T07:27:16.310Z,14.97
2023-04-28T07:29:43.322Z,14.60
2023-04-28T07:32:10.713Z,14.17
2023-04-28T07:34:38.003Z,14.30
2023-04-28T07:37:05.019Z,14.13
2023-04-28T07:39:35.174Z,14.20
2023-04-28T07:42:03.463Z,16.03
2023-04-28T07:44:31.486Z,13.97
2023-04-28T07:47:00.812Z,13.47
2023-04-28T07:49:29.467Z,13.90
2023-04-28T07:51:56.803Z,12.97
2023-04-28T07:54:24.557Z,12.70
2023-04-28T07:56:52.075Z,13.60
2023-04-28T07:59:18.979Z,13.93
2023-04-28T08:01:46.108Z,12.43
2023-04-28T08:04:13.862Z,13.10
2023-04-28T08:06:41.336Z,12.37
2023-04-28T08:09:08.376Z,12.07
2023-04-28T08:11:35.346Z,11.53
2023-04-28T08:14:03.581Z,12.77
2023-04-28T08:16:31.666Z,12.27
2023-04-28T08:19:00.401Z,11.30
2023-04-28T08:21:27.477Z,10.47
2023-04-28T08:23:54.404Z,11.50
2023-04-28T08:26:21.487Z,10.70
2023-04-28T08:28:48.341Z,11.83
2023-04-28T08:31:15.670Z,10.77
2023-04-28T08:33:44.933Z,11.40
2023-04-28T08:36:18.126Z,10.20
2023-04-28T08:38:46.503Z,11.50
2023-04-28T08:41:15.603Z,11.60
2023-04-28T08:43:43.801Z,9.97
2023-04-28T08:46:11.221Z,10.40
2023-04-28T08:48:41.693Z,9.90
2023-04-28T08:51:09.035Z,10.43
2023-04-28T08:54:06.157Z,10.20
2023-04-28T08:56:32.295Z,10.63
2023-04-28T08:59:04.328Z,9.83
2023-04-28T09:01:35.024Z,10.43
2023-04-28T09:04:03.245Z,9.70
2023-04-28T09:06:38.334Z,10.07
2023-04-28T09:09:25.102Z,10.07
2023-04-28T09:12:01.353Z,9.50
2023-04-28T09:14:30.570Z,10.37
2023-04-28T09:16:57.992Z,9.30
2023-04-28T09:19:32.957Z,12.57
2023-04-28T09:22:02.135Z,10.80
2023-04-28T09:24:43.245Z,10.80
2023-04-28T09:27:11.928Z,11.90
2023-04-28T09:29:39.543Z,11.73
2023-04-28T09:32:21.744Z,11.27
2023-04-28T09:34:51.498Z,10.87
2023-04-28T09:37:23.318Z,11.83
2023-04-28T09:39:55.033Z,10.00
2023-04-28T09:42:36.346Z,9.80
2023-04-28T09:45:08.300Z,10.70
2023-04-28T09:47:40.947Z,11.40
2023-04-28T09:50:14.979Z,10.93
2023-04-28T09:52:48.870Z,10.53
2023-04-28T09:55:16.070Z,11.90
2023-04-28T09:57:48.649Z,12.33
2023-04-28T10:00:18.784Z,12.73
2023-04-28T10:02:46.175Z,14.20
2023-04-28T10:05:17.239Z,13.13
2023-04-28T10:07:44.535Z,14.07
2023-04-28T10:10:14.794Z,14.17
2023-04-28T10:12:42.536Z,12.23
2023-04-28T10:15:10.781Z,12.00
2023-04-28T10:17:39.179Z,13.40
2023-04-28T10:20:06.809Z,14.43
2023-04-28T10:23:24.384Z,13.93
2023-04-28T10:25:57.309Z,13.13
2023-04-28T10:28:24.922Z,12.90
2023-04-28T10:31:14.488Z,12.20
2023-04-28T10:33:42.217Z,13.03
2023-04-28T10:36:09.690Z,13.47
2023-04-28T10:39:02.558Z,14.43
2023-04-28T10:41:33.293Z,13.70
2023-04-28T10:44:00.172Z,13.40
2023-04-28T10:46:27.150Z,13.20
2023-04-28T10:48:54.706Z,14.27
2023-04-28T10:51:22.729Z,11.60
2023-04-28T10:53:50.397Z,11.70
2023-04-28T10:56:19.931Z,12.90
2023-04-28T10:58:49.102Z,12.67
2023-04-28T11:01:24.231Z,12.70
2023-04-28T11:04:08.320Z,11.40
2023-04-28T11:06:47.002Z,12.60
2023-04-28T11:09:19.912Z,12.50
2023-04-28T11:12:06.692Z,11.90
2023-04-28T11:14:43.260Z,12.70
2023-04-28T11:17:13.957Z,11.60
2023-04-28T11:19:44.132Z,12.67
2023-04-28T11:22:15.267Z,11.00
2023-04-28T11:24:56.095Z,12.70
2023-04-28T11:27:27.779Z,14.07
2023-04-28T11:29:55.005Z,12.70
2023-04-28T11:32:29.680Z,14.30
2023-04-28T11:34:57.507Z,14.20
2023-04-28T11:37:24.989Z,13.33
2023-04-28T11:39:52.150Z,14.63
2023-04-28T11:42:19.508Z,13.90
2023-04-28T11:44:54.481Z,12.90
2023-04-28T11:47:32.752Z,13.47
2023-04-28T11:50:01.418Z,12.77
2023-04-28T11:52:28.536Z,13.37
2023-04-28T11:54:58.792Z,13.63
2023-04-28T11:57:26.740Z,13.67
2023-04-28T11:59:53.727Z,13.57
2023-04-28T12:02:29.890Z,13.73
2023-04-28T12:05:05.504Z,13.00
2023-04-28T12:07:45.919Z,11.73
2023-04-28T12:10:16.076Z,12.03
2023-04-28T12:15:13.842Z,11.10
2023-04-28T12:17:42.316Z,10.47
2023-04-28T12:20:36.756Z,11.20
2023-04-28T12:23:03.898Z,10.27
2023-04-28T12:25:31.139Z,11.60
2023-04-28T12:28:08.127Z,11.40
2023-04-28T12:30:42.495Z,9.87
2023-04-28T12:33:29.790Z,10.83
2023-04-28T12:35:58.199Z,10.73
2023-04-28T12:38:26.288Z,10.67
2023-04-28T12:40:53.463Z,11.43
2023-04-28T12:43:23.557Z,10.53
2023-04-28T12:45:57.515Z,10.70
2023-04-28T12:48:25.329Z,10.30
2023-04-28T12:50:52.528Z,10.67
2023-04-28T12:53:19.763Z,10.93
2023-04-28T12:55:46.660Z,10.47
2023-04-28T12:58:13.517Z,10.63
2023-04-28T13:00:42.078Z,10.80
2023-04-28T13:03:09.108Z,9.17
2023-04-28T13:05:36.704Z,10.13
2023-04-28T13:08:04.818Z,10.20
2023-04-28T13:10:31.894Z,10.00
2023-04-28T13:12:58.976Z,10.57
2023-04-28T13:15:26.124Z,9.47
2023-04-28T13:17:53.002Z,10.70
2023-04-28T13:20:20.020Z,10.20
2023-04-28T13:22:47.711Z,10.77
2023-04-28T13:25:15.200Z,9.50
2023-04-28T13:27:43.297Z,10.17
2023-04-28T13:30:11.407Z,10.00
2023-04-28T13:32:38.298Z,9.63
2023-04-28T13:35:05.672Z,10.47
2023-04-28T13:37:33.404Z,9.30
2023-04-28T13:40:00.748Z,10.93
2023-04-28T13:42:27.728Z,10.30
2023-04-28T13:44:54.639Z,10.00
2023-04-28T13:47:21.895Z,10.57
2023-04-28T13:49:49.245Z,10.57
2023-04-28T13:52:19.251Z,10.57
2023-04-28T13:54:47.363Z,9.87
2023-04-28T13:57:14.652Z,10.33
2023-04-28T13:59:41.986Z,10.07
2023-04-28T14:02:11.875Z,10.57
2023-04-28T14:04:38.922Z,9.90
2023-04-28T14:07:05.893Z,10.60
2023-04-28T14:09:32.886Z,9.10
2023-04-28T14:11:59.826Z,10.77
2023-04-28T14:14:26.864Z,9.40
2023-04-28T14:16:53.840Z,10.87
2023-04-28T14:19:21.136Z,10.57
2023-04-28T14:21:48.358Z,10.63
2023-04-28T14:24:15.868Z,10.60
2023-04-28T14:26:44.199Z,11.10
2023-04-28T14:29:11.231Z,11.37
2023-04-28T14:31:38.771Z,11.30
2023-04-28T14:34:05.925Z,10.93
2023-04-28T14:36:38.264Z,12.40
2023-04-28T14:39:05.496Z,10.67
2023-04-28T14:41:32.361Z,11.83
2023-04-28T14:43:59.230Z,11.80
2023-04-28T14:46:26.330Z,11.80
2023-04-28T14:48:55.825Z,11.90
2023-04-28T14:51:22.866Z,11.30
2023-04-28T14:53:49.717Z,11.53
2023-04-28T14:56:19.267Z,10.33
2023-04-28T14:58:49.989Z,8.70
2023-04-28T15:01:17.472Z,7.40
2023-04-28T15:03:44.587Z,7.40
2023-04-28T15:06:12.507Z,7.80
2023-04-28T15:08:40.512Z,6.50
2023-04-28T15:11:07.621Z,7.23
2023-04-28T15:13:34.906Z,6.37
2023-04-28T15:16:03.398Z,6.73
2023-04-28T15:18:30.347Z,7.17
2023-04-28T15:20:57.282Z,7.27
2023-04-28T15:23:24.152Z,7.80
2023-04-28T15:25:53.553Z,7.43
2023-04-28T15:28:20.678Z,6.97
2023-04-28T15:30:47.587Z,6.77
2023-04-28T15:33:17.525Z,7.93
2023-04-28T15:35:44.800Z,6.97
2023-04-28T15:38:11.693Z,7.30
2023-04-28T15:40:42.006Z,7.10
2023-04-28T15:43:09.357Z,6.80
2023-04-28T15:45:37.332Z,7.43
2023-04-28T15:48:06.845Z,6.50
2023-04-28T15:50:34.053Z,6.60
2023-04-28T15:53:01.084Z,6.80
2023-04-28T15:55:28.329Z,7.23
2023-04-28T15:57:56.026Z,5.90
2023-04-28T16:00:22.948Z,6.73
2023-04-28T16:02:50.223Z,6.10
2023-04-28T16:05:17.386Z,6.37
2023-04-28T16:07:44.999Z,6.70
2023-04-28T16:10:14.386Z,6.17
2023-04-28T16:12:42.643Z,5.60
2023-04-28T16:15:12.210Z,5.83
2023-04-28T16:17:39.712Z,5.87
2023-04-28T16:20:08.272Z,5.80
2023-04-28T16:22:36.273Z,6.20
2023-04-28T16:25:06.454Z,5.43
2023-04-28T16:27:34.073Z,5.67
2023-04-28T16:30:01.327Z,4.43
2023-04-28T16:32:28.864Z,4.10
2023-04-28T16:34:59.490Z,3.50
2023-04-28T16:37:26.367Z,2.93
2023-04-28T16:39:53.568Z,3.50
2023-04-28T16:42:23.156Z,3.30
2023-04-28T16:44:52.526Z,3.30
2023-04-28T16:47:21.315Z,3.20
2023-04-28T16:49:48.444Z,2.83
2023-04-28T16:52:15.927Z,3.07
2023-04-28T16:54:42.550Z,3.10
2023-04-28T16:57:09.300Z,3.10
2023-04-28T16:59:36.232Z,3.33
2023-04-28T17:02:06.777Z,3.60
2023-04-28T17:04:33.629Z,4.20
2023-04-28T17:07:04.034Z,3.93
2023-04-28T17:09:33.510Z,4.80
2023-04-28T17:12:00.863Z,3.80
2023-04-28T17:14:27.549Z,4.93
2023-04-28T17:16:54.444Z,4.57
2023-04-28T17:19:21.084Z,5.13
2023-04-28T17:21:49.817Z,6.03
2023-04-28T17:24:23.837Z,6.17
2023-04-28T17:26:51.106Z,5.80
2023-04-28T17:29:17.905Z,5.37
2023-04-28T17:31:45.932Z,5.70
2023-04-28T17:34:13.614Z,5.00
2023-04-28T17:36:41.162Z,6.50
2023-04-28T17:39:09.320Z,6.47
2023-04-28T17:41:36.904Z,6.70
2023-04-28T17:44:04.045Z,6.07
2023-04-28T17:46:31.011Z,7.10
2023-04-28T17:48:58.149Z,6.60
2023-04-28T17:51:24.947Z,6.20
2023-04-28T17:53:51.648Z,6.67
2023-04-28T17:56:18.429Z,7.10
2023-04-28T17:58:46.229Z,6.30
2023-04-28T18:01:12.957Z,7.90
2023-04-28T18:03:39.973Z,7.20
2023-04-28T18:06:08.287Z,6.90
2023-04-28T18:08:36.812Z,7.73
2023-04-28T18:11:03.890Z,7.17
2023-04-28T18:13:30.937Z,8.07
2023-04-28T18:15:57.754Z,8.13
2023-04-28T18:18:24.761Z,8.07
2023-04-28T18:20:58.112Z,8.70
2023-04-28T18:23:26.576Z,7.77
2023-04-28T18:25:53.465Z,7.37
2023-04-28T18:28:20.250Z,7.03
2023-04-28T18:30:46.959Z,7.20
2023-04-28T18:33:13.704Z,7.60
2023-04-28T18:35:40.842Z,8.63
2023-04-28T18:38:07.648Z,8.60
2023-04-28T18:40:37.743Z,11.50
2023-04-28T18:43:08.624Z,10.60
2023-04-28T18:45:37.208Z,11.43
2023-04-28T18:48:04.470Z,12.30
2023-04-28T18:50:32.656Z,14.60
2023-04-28T18:53:04.226Z,12.93
2023-04-28T18:55:33.438Z,13.50
2023-04-28T18:58:01.842Z,14.30
2023-04-28T19:00:28.815Z,15.13
2023-04-28T19:02:55.808Z,15.00
2023-04-28T19:05:22.809Z,15.23
2023-04-28T19:07:49.707Z,14.90
2023-04-28T19:10:16.976Z,15.07
2023-04-28T19:12:44.679Z,14.13
2023-04-28T19:15:11.596Z,14.30
2023-04-28T19:17:38.490Z,12.90
2023-04-28T19:20:06.143Z,14.60
2023-04-28T19:22:38.344Z,14.10
2023-04-28T19:25:06.947Z,14.47
2023-04-28T19:27:39.064Z,14.57
2023-04-28T19:30:08.584Z,14.50
2023-04-28T19:32:36.119Z,14.13
2023-04-28T19:35:04.333Z,13.57
2023-04-28T19:37:35.088Z,13.47
2023-04-28T19:40:04.846Z,12.80
2023-04-28T19:42:33.243Z,15.77
2023-04-28T19:45:00.237Z,15.20
2023-04-28T19:47:33.192Z,14.20
2023-04-28T19:50:00.308Z,14.70
2023-04-28T19:52:27.921Z,11.87
2023-04-28T19:54:55.263Z,12.70
2023-04-28T19:57:22.457Z,12.83
2023-04-28T19:59:50.054Z,15.10
2023-04-28T20:02:17.545Z,13.10
2023-04-28T20:04:44.910Z,14.57
2023-04-28T20:07:12.053Z,14.83
2023-04-28T20:09:39.299Z,15.87
2023-04-28T20:12:09.419Z,14.50
2023-04-28T20:14:37.190Z,13.43
2023-04-28T20:17:05.492Z,13.63
2023-04-28T20:19:32.715Z,11.60
2023-04-28T20:22:04.810Z,11.90
2023-04-28T20:24:35.988Z,10.93
2023-04-28T20:27:04.141Z,9.50
2023-04-28T20:29:34.385Z,9.50
2023-04-28T20:32:02.447Z,8.50
2023-04-28T20:34:30.184Z,8.13
2023-04-28T20:36:59.574Z,7.37
2023-04-28T20:39:26.966Z,7.60
2023-04-28T20:41:53.918Z,7.57
2023-04-28T20:44:20.911Z,7.43
2023-04-28T20:46:47.863Z,7.40
2023-04-28T20:49:15.558Z,8.20
2023-04-28T20:51:45.662Z,8.20
2023-04-28T20:54:12.995Z,7.83
2023-04-28T20:56:40.381Z,7.83
2023-04-28T20:59:07.392Z,7.57
2023-04-28T21:01:34.297Z,7.73
2023-04-28T21:04:01.561Z,6.83
2023-04-28T21:06:28.437Z,7.07
2023-04-28T21:08:55.343Z,6.93
2023-04-28T21:11:22.427Z,7.90
2023-04-28T21:13:50.465Z,7.97
2023-04-28T21:16:21.229Z,9.37
2023-04-28T21:18:49.421Z,9.57
2023-04-28T21:21:16.683Z,8.97
2023-04-28T21:23:44.164Z,9.80
2023-04-28T21:26:11.301Z,10.80
2023-04-28T21:28:39.898Z,11.30
2023-04-28T21:31:07.521Z,10.80
2023-04-28T21:33:34.625Z,10.77
2023-04-28T21:36:07.319Z,12.17
2023-04-28T21:38:35.480Z,12.93
2023-04-28T21:41:02.623Z,13.80
2023-04-28T21:43:29.884Z,13.50
2023-04-28T21:45:56.754Z,13.57
2023-04-28T21:48:23.744Z,15.10
2023-04-28T21:50:50.659Z,12.77
2023-04-28T21:53:17.616Z,13.00
2023-04-28T21:55:45.021Z,14.03
2023-04-28T21:58:12.331Z,14.27
2023-04-28T22:00:43.615Z,13.43
2023-04-28T22:03:11.088Z,15.80
2023-04-28T22:05:39.782Z,14.77
2023-04-28T22:08:06.822Z,14.50
2023-04-28T22:10:34.633Z,16.57
2023-04-28T22:13:02.107Z,15.10
2023-04-28T22:15:28.968Z,15.30
2023-04-28T22:17:55.841Z,14.63
2023-04-28T22:20:22.708Z,16.33
2023-04-28T22:22:50.336Z,15.73
2023-04-28T22:25:17.492Z,14.77
2023-04-28T22:27:44.348Z,17.47
2023-04-28T22:30:11.832Z,17.10
2023-04-28T22:32:38.782Z,16.30
2023-04-28T22:35:06.273Z,18.20
2023-04-28T22:37:34.095Z,17.33
2023-04-28T22:40:01.195Z,18.03
2023-04-28T22:42:29.143Z,18.40
2023-04-28T22:44:56.481Z,19.37
2023-04-28T22:47:23.392Z,19.80
2023-04-28T22:49:50.773Z,20.70
2023-04-28T22:52:20.407Z,19.87
2023-04-28T22:54:47.383Z,19.30
2023-04-28T22:57:14.251Z,19.53
2023-04-28T22:59:41.955Z,19.30
2023-04-28T23:02:11.148Z,20.57
2023-04-28T23:04:38.148Z,20.17
2023-04-28T23:07:05.858Z,21.70
2023-04-28T23:09:35.975Z,20.73
2023-04-28T23:12:04.782Z,22.10
2023-04-28T23:14:33.315Z,22.70
2023-04-28T23:17:00.287Z,24.50
2023-04-28T23:19:27.126Z,22.00
2023-04-28T23:21:54.798Z,23.47
2023-04-28T23:24:21.663Z,24.47
2023-04-28T23:26:48.590Z,25.20
2023-04-28T23:29:15.453Z,24.63
2023-04-28T23:31:42.419Z,25.67
2023-04-28T23:34:09.484Z,25.80
2023-04-28T23:36:37.779Z,27.90
2023-04-28T23:39:04.890Z,27.47
2023-04-28T23:41:31.830Z,28.23
2023-04-28T23:43:58.704Z,29.50
2023-04-28T23:46:25.586Z,27.87
2023-04-28T23:48:52.777Z,29.63
2023-04-28T23:51:19.604Z,29.07
2023-04-28T23:53:46.963Z,29.50
2023-04-28T23:56:14.552Z,30.13
2023-04-28T23:58:41.864Z,33.20
